sensor_id;sensor_type;location;lat;lon;timestamp;temperature;humidity
7461;DHT22;6757;52.258;12.840;2023-10-19T00:02:44;6.60;99.90
7461;DHT22;6757;52.258;12.840;2023-10-19T00:05:11;6.60;99.90
7461;DHT22;6757;52.258;12.840;2023-10-19T00:07:41;7.30;99.90
7461;DHT22;6757;52.258;12.840;2023-10-19T00:10:07;6.60;99.90
7461;DHT22;6757;52.258;12.840;2023-10-19T00:12:35;6.60;99.90
7461;DHT22;6757;52.258;12.840;2023-10-19T00:15:01;6.60;99.90
7461;DHT22;6757;52.258;12.840;2023-10-19T00:17:29;6.60;99.90
7461;DHT22;6757;52.258;12.840;2023-10-19T00:19:58;6.80;99.90
7461;DHT22;6757;52.258;12.840;2023-10-19T00:22:35;6.60;99.90
7461;DHT22;6757;52.258;12.840;2023-10-19T00:25:03;6.60;99.90
7461;DHT22;6757;52.258;12.840;2023-10-19T00:27:29;6.60;99.90
7461;DHT22;6757;52.258;12.840;2023-10-19T00:29:57;6.60;99.90
7461;DHT22;6757;52.258;12.840;2023-10-19T00:32:31;6.20;99.90
7461;DHT22;6757;52.258;12.840;2023-10-19T00:35:00;6.60;99.90
7461;DHT22;6757;52.258;12.840;2023-10-19T00:37:34;6.50;99.90
7461;DHT22;6757;52.258;12.840;2023-10-19T00:40:11;6.60;99.90
7461;DHT22;6757;52.258;12.840;2023-10-19T00:42:45;6.60;99.90
7461;DHT22;6757;52.258;12.840;2023-10-19T00:45:18;6.60;99.90
7461;DHT22;6757;52.258;12.840;2023-10-19T00:47:51;6.50;99.90
7461;DHT22;6757;52.258;12.840;2023-10-19T00:50:18;6.50;99.90
7461;DHT22;6757;52.258;12.840;2023-10-19T00:52:48;6.50;99.90
7461;DHT22;6757;52.258;12.840;2023-10-19T00:55:17;6.50;99.90
7461;DHT22;6757;52.258;12.840;2023-10-19T00:57:48;6.50;99.90
7461;DHT22;6757;52.258;12.840;2023-10-19T01:00:15;6.20;99.90
7461;DHT22;6757;52.258;12.840;2023-10-19T01:02:55;6.50;99.90
7461;DHT22;6757;52.258;12.840;2023-10-19T01:05:25;6.50;99.90
7461;DHT22;6757;52.258;12.840;2023-10-19T01:07:57;5.70;99.90
7461;DHT22;6757;52.258;12.840;2023-10-19T01:10:29;6.50;99.90
7461;DHT22;6757;52.258;12.840;2023-10-19T01:12:57;6.50;99.90
7461;DHT22;6757;52.258;12.840;2023-10-19T01:15:25;6.50;99.90
7461;DHT22;6757;52.258;12.840;2023-10-19T01:18:00;6.50;99.90
7461;DHT22;6757;52.258;12.840;2023-10-19T01:20:29;6.50;99.90
7461;DHT22;6757;52.258;12.840;2023-10-19T01:23:17;6.60;99.90
7461;DHT22;6757;52.258;12.840;2023-10-19T01:25:49;6.60;99.90
7461;DHT22;6757;52.258;12.840;2023-10-19T01:28:25;6.60;99.90
7461;DHT22;6757;52.258;12.840;2023-10-19T01:31:07;6.60;99.90
7461;DHT22;6757;52.258;12.840;2023-10-19T01:33:39;6.60;99.90
7461;DHT22;6757;52.258;12.840;2023-10-19T01:36:07;6.60;99.90
7461;DHT22;6757;52.258;12.840;2023-10-19T01:38:39;6.70;99.90
7461;DHT22;6757;52.258;12.840;2023-10-19T01:41:06;6.60;99.90
7461;DHT22;6757;52.258;12.840;2023-10-19T01:43:39;6.60;99.90
7461;DHT22;6757;52.258;12.840;2023-10-19T01:46:09;6.60;99.90
7461;DHT22;6757;52.258;12.840;2023-10-19T01:48:39;6.60;99.90
7461;DHT22;6757;52.258;12.840;2023-10-19T01:51:08;6.70;99.90
7461;DHT22;6757;52.258;12.840;2023-10-19T01:53:38;6.70;99.90
7461;DHT22;6757;52.258;12.840;2023-10-19T01:56:07;6.60;99.90
7461;DHT22;6757;52.258;12.840;2023-10-19T01:58:35;6.70;99.90
7461;DHT22;6757;52.258;12.840;2023-10-19T02:01:03;6.70;99.90
7461;DHT22;6757;52.258;12.840;2023-10-19T02:03:38;6.70;99.90
7461;DHT22;6757;52.258;12.840;2023-10-19T02:06:07;6.70;99.90
7461;DHT22;6757;52.258;12.840;2023-10-19T02:08:45;7.20;99.90
7461;DHT22;6757;52.258;12.840;2023-10-19T02:11:18;6.70;99.90
7461;DHT22;6757;52.258;12.840;2023-10-19T02:13:46;7.10;99.90
7461;DHT22;6757;52.258;12.840;2023-10-19T02:16:13;6.80;99.90
7461;DHT22;6757;52.258;12.840;2023-10-19T02:18:42;6.70;99.90
7461;DHT22;6757;52.258;12.840;2023-10-19T02:21:08;6.70;99.90
7461;DHT22;6757;52.258;12.840;2023-10-19T02:23:38;6.70;99.90
7461;DHT22;6757;52.258;12.840;2023-10-19T02:26:08;6.70;99.90
7461;DHT22;6757;52.258;12.840;2023-10-19T02:28:35;6.70;99.90
7461;DHT22;6757;52.258;12.840;2023-10-19T02:31:04;6.70;99.90
7461;DHT22;6757;52.258;12.840;2023-10-19T02:33:41;6.80;99.90
7461;DHT22;6757;52.258;12.840;2023-10-19T02:36:11;6.70;99.90
7461;DHT22;6757;52.258;12.840;2023-10-19T02:38:39;6.80;99.90
7461;DHT22;6757;52.258;12.840;2023-10-19T02:41:15;6.70;99.90
7461;DHT22;6757;52.258;12.840;2023-10-19T02:43:41;6.80;99.90
7461;DHT22;6757;52.258;12.840;2023-10-19T02:46:11;6.70;99.90
7461;DHT22;6757;52.258;12.840;2023-10-19T02:48:38;6.80;99.90
7461;DHT22;6757;52.258;12.840;2023-10-19T02:51:09;7.10;99.90
7461;DHT22;6757;52.258;12.840;2023-10-19T02:53:36;6.10;99.90
7461;DHT22;6757;52.258;12.840;2023-10-19T02:56:11;6.80;99.90
7461;DHT22;6757;52.258;12.840;2023-10-19T02:58:41;6.80;99.90
7461;DHT22;6757;52.258;12.840;2023-10-19T03:01:13;6.80;99.90
7461;DHT22;6757;52.258;12.840;2023-10-19T03:03:43;6.70;99.90
7461;DHT22;6757;52.258;12.840;2023-10-19T03:06:10;6.80;99.90
7461;DHT22;6757;52.258;12.840;2023-10-19T03:08:36;6.80;99.90
7461;DHT22;6757;52.258;12.840;2023-10-19T03:11:03;6.80;99.90
7461;DHT22;6757;52.258;12.840;2023-10-19T03:13:32;5.90;99.90
7461;DHT22;6757;52.258;12.840;2023-10-19T03:16:00;6.80;99.90
7461;DHT22;6757;52.258;12.840;2023-10-19T03:18:26;6.80;99.90
7461;DHT22;6757;52.258;12.840;2023-10-19T03:20:53;6.80;99.90
7461;DHT22;6757;52.258;12.840;2023-10-19T03:23:19;6.80;99.90
7461;DHT22;6757;52.258;12.840;2023-10-19T03:25:53;6.80;99.90
7461;DHT22;6757;52.258;12.840;2023-10-19T03:28:37;6.80;99.90
7461;DHT22;6757;52.258;12.840;2023-10-19T03:31:07;6.70;99.90
7461;DHT22;6757;52.258;12.840;2023-10-19T03:33:34;6.80;99.90
7461;DHT22;6757;52.258;12.840;2023-10-19T03:36:02;6.40;99.90
7461;DHT22;6757;52.258;12.840;2023-10-19T03:38:30;6.90;99.90
7461;DHT22;6757;52.258;12.840;2023-10-19T03:41:02;6.80;99.90
7461;DHT22;6757;52.258;12.840;2023-10-19T03:43:32;6.80;99.90
7461;DHT22;6757;52.258;12.840;2023-10-19T03:46:02;6.80;99.90
7461;DHT22;6757;52.258;12.840;2023-10-19T03:48:41;6.80;99.90
7461;DHT22;6757;52.258;12.840;2023-10-19T03:51:07;6.80;99.90
7461;DHT22;6757;52.258;12.840;2023-10-19T03:53:37;6.90;99.90
7461;DHT22;6757;52.258;12.840;2023-10-19T03:56:05;6.90;99.90
7461;DHT22;6757;52.258;12.840;2023-10-19T03:58:36;6.90;99.90
7461;DHT22;6757;52.258;12.840;2023-10-19T04:01:04;6.90;99.90
7461;DHT22;6757;52.258;12.840;2023-10-19T04:03:32;6.90;99.90
7461;DHT22;6757;52.258;12.840;2023-10-19T04:06:03;6.90;99.90
7461;DHT22;6757;52.258;12.840;2023-10-19T04:08:30;6.90;99.90
7461;DHT22;6757;52.258;12.840;2023-10-19T04:11:02;6.90;99.90
7461;DHT22;6757;52.258;12.840;2023-10-19T04:13:37;6.90;99.90
7461;DHT22;6757;52.258;12.840;2023-10-19T04:16:04;6.90;99.90
7461;DHT22;6757;52.258;12.840;2023-10-19T04:18:33;8.20;99.90
7461;DHT22;6757;52.258;12.840;2023-10-19T04:21:04;6.90;99.90
7461;DHT22;6757;52.258;12.840;2023-10-19T04:23:31;5.70;99.90
7461;DHT22;6757;52.258;12.840;2023-10-19T04:26:00;6.80;99.90
7461;DHT22;6757;52.258;12.840;2023-10-19T04:28:31;6.90;99.90
7461;DHT22;6757;52.258;12.840;2023-10-19T04:31:03;6.80;99.90
7461;DHT22;6757;52.258;12.840;2023-10-19T04:33:32;6.80;99.90
7461;DHT22;6757;52.258;12.840;2023-10-19T04:36:00;6.70;99.90
7461;DHT22;6757;52.258;12.840;2023-10-19T04:38:29;6.70;99.90
7461;DHT22;6757;52.258;12.840;2023-10-19T04:41:05;6.60;99.90
7461;DHT22;6757;52.258;12.840;2023-10-19T04:43:35;6.60;99.90
7461;DHT22;6757;52.258;12.840;2023-10-19T04:46:10;6.60;99.90
7461;DHT22;6757;52.258;12.840;2023-10-19T04:48:38;6.50;99.90
7461;DHT22;6757;52.258;12.840;2023-10-19T04:51:08;6.50;99.90
7461;DHT22;6757;52.258;12.840;2023-10-19T04:53:38;6.50;99.90
7461;DHT22;6757;52.258;12.840;2023-10-19T04:56:05;6.40;99.90
7461;DHT22;6757;52.258;12.840;2023-10-19T04:58:35;6.40;99.90
7461;DHT22;6757;52.258;12.840;2023-10-19T05:01:02;6.40;99.90
7461;DHT22;6757;52.258;12.840;2023-10-19T05:03:29;6.50;99.90
7461;DHT22;6757;52.258;12.840;2023-10-19T05:05:56;6.40;99.90
7461;DHT22;6757;52.258;12.840;2023-10-19T05:08:23;6.40;99.90
7461;DHT22;6757;52.258;12.840;2023-10-19T05:10:54;5.50;99.90
7461;DHT22;6757;52.258;12.840;2023-10-19T05:13:22;6.40;99.90
7461;DHT22;6757;52.258;12.840;2023-10-19T05:15:50;6.40;99.90
7461;DHT22;6757;52.258;12.840;2023-10-19T05:18:18;6.40;99.90
7461;DHT22;6757;52.258;12.840;2023-10-19T05:20:45;5.80;99.90
7461;DHT22;6757;52.258;12.840;2023-10-19T05:23:12;5.30;99.90
7461;DHT22;6757;52.258;12.840;2023-10-19T05:25:40;6.50;99.90
7461;DHT22;6757;52.258;12.840;2023-10-19T05:28:07;6.40;99.90
7461;DHT22;6757;52.258;12.840;2023-10-19T05:30:35;7.20;99.90
7461;DHT22;6757;52.258;12.840;2023-10-19T05:33:02;5.30;99.90
7461;DHT22;6757;52.258;12.840;2023-10-19T05:35:31;6.40;99.90
7461;DHT22;6757;52.258;12.840;2023-10-19T05:38:00;6.40;99.90
7461;DHT22;6757;52.258;12.840;2023-10-19T05:40:28;5.20;99.90
7461;DHT22;6757;52.258;12.840;2023-10-19T05:42:56;6.40;99.90
7461;DHT22;6757;52.258;12.840;2023-10-19T05:45:27;6.40;99.90
7461;DHT22;6757;52.258;12.840;2023-10-19T05:47:54;6.40;99.90
7461;DHT22;6757;52.258;12.840;2023-10-19T05:50:22;6.40;99.90
7461;DHT22;6757;52.258;12.840;2023-10-19T05:52:49;6.30;99.90
7461;DHT22;6757;52.258;12.840;2023-10-19T05:55:17;6.30;99.90
7461;DHT22;6757;52.258;12.840;2023-10-19T05:57:46;6.20;99.90
7461;DHT22;6757;52.258;12.840;2023-10-19T06:00:13;6.20;99.90
7461;DHT22;6757;52.258;12.840;2023-10-19T06:02:43;6.20;99.90
7461;DHT22;6757;52.258;12.840;2023-10-19T06:05:12;6.10;99.90
7461;DHT22;6757;52.258;12.840;2023-10-19T06:07:41;6.10;99.90
7461;DHT22;6757;52.258;12.840;2023-10-19T06:10:08;6.00;99.90
7461;DHT22;6757;52.258;12.840;2023-10-19T06:12:41;6.10;99.90
7461;DHT22;6757;52.258;12.840;2023-10-19T06:15:08;6.00;99.90
7461;DHT22;6757;52.258;12.840;2023-10-19T06:17:36;6.00;99.90
7461;DHT22;6757;52.258;12.840;2023-10-19T06:20:05;6.00;99.90
7461;DHT22;6757;52.258;12.840;2023-10-19T06:22:34;6.00;99.90
7461;DHT22;6757;52.258;12.840;2023-10-19T06:25:01;6.00;99.90
7461;DHT22;6757;52.258;12.840;2023-10-19T06:27:29;5.90;99.90
7461;DHT22;6757;52.258;12.840;2023-10-19T06:29:56;5.90;99.90
7461;DHT22;6757;52.258;12.840;2023-10-19T06:32:23;5.90;99.90
7461;DHT22;6757;52.258;12.840;2023-10-19T06:34:50;5.90;99.90
7461;DHT22;6757;52.258;12.840;2023-10-19T06:37:17;5.90;99.90
7461;DHT22;6757;52.258;12.840;2023-10-19T06:39:44;6.00;99.90
7461;DHT22;6757;52.258;12.840;2023-10-19T06:42:11;5.90;99.90
7461;DHT22;6757;52.258;12.840;2023-10-19T06:44:41;5.90;99.90
7461;DHT22;6757;52.258;12.840;2023-10-19T06:47:08;6.00;99.90
7461;DHT22;6757;52.258;12.840;2023-10-19T06:49:35;5.90;99.90
7461;DHT22;6757;52.258;12.840;2023-10-19T06:52:03;5.90;99.90
7461;DHT22;6757;52.258;12.840;2023-10-19T06:54:32;5.90;99.90
7461;DHT22;6757;52.258;12.840;2023-10-19T06:56:58;5.90;99.90
7461;DHT22;6757;52.258;12.840;2023-10-19T06:59:28;5.90;99.90
7461;DHT22;6757;52.258;12.840;2023-10-19T07:01:58;5.90;99.90
7461;DHT22;6757;52.258;12.840;2023-10-19T07:04:26;5.90;99.90
7461;DHT22;6757;52.258;12.840;2023-10-19T07:06:53;5.90;99.90
7461;DHT22;6757;52.258;12.840;2023-10-19T07:09:20;5.70;99.90
7461;DHT22;6757;52.258;12.840;2023-10-19T07:11:48;5.90;99.90
7461;DHT22;6757;52.258;12.840;2023-10-19T07:14:18;5.90;99.90
7461;DHT22;6757;52.258;12.840;2023-10-19T07:16:47;5.90;99.90
7461;DHT22;6757;52.258;12.840;2023-10-19T07:19:15;5.90;99.90
7461;DHT22;6757;52.258;12.840;2023-10-19T07:21:42;5.90;99.90
7461;DHT22;6757;52.258;12.840;2023-10-19T07:24:14;5.90;99.90
7461;DHT22;6757;52.258;12.840;2023-10-19T07:26:44;6.00;99.90
7461;DHT22;6757;52.258;12.840;2023-10-19T07:29:20;5.90;99.90
7461;DHT22;6757;52.258;12.840;2023-10-19T07:31:46;5.90;99.90
7461;DHT22;6757;52.258;12.840;2023-10-19T07:34:13;6.00;99.90
7461;DHT22;6757;52.258;12.840;2023-10-19T07:36:41;5.10;99.90
7461;DHT22;6757;52.258;12.840;2023-10-19T07:39:08;6.00;99.90
7461;DHT22;6757;52.258;12.840;2023-10-19T07:41:39;6.00;99.90
7461;DHT22;6757;52.258;12.840;2023-10-19T07:44:06;5.10;99.90
7461;DHT22;6757;52.258;12.840;2023-10-19T07:46:34;6.00;99.90
7461;DHT22;6757;52.258;12.840;2023-10-19T07:49:00;6.00;99.90
7461;DHT22;6757;52.258;12.840;2023-10-19T07:51:28;6.00;99.90
7461;DHT22;6757;52.258;12.840;2023-10-19T07:53:55;4.90;99.90
7461;DHT22;6757;52.258;12.840;2023-10-19T07:56:22;6.50;99.90
7461;DHT22;6757;52.258;12.840;2023-10-19T07:58:50;6.00;99.90
7461;DHT22;6757;52.258;12.840;2023-10-19T08:01:17;6.10;99.90
7461;DHT22;6757;52.258;12.840;2023-10-19T08:03:45;6.00;99.90
7461;DHT22;6757;52.258;12.840;2023-10-19T08:06:12;6.10;99.90
7461;DHT22;6757;52.258;12.840;2023-10-19T08:08:39;6.10;99.90
7461;DHT22;6757;52.258;12.840;2023-10-19T08:11:07;6.10;99.90
7461;DHT22;6757;52.258;12.840;2023-10-19T08:13:34;6.10;99.90
7461;DHT22;6757;52.258;12.840;2023-10-19T08:16:01;6.10;99.90
7461;DHT22;6757;52.258;12.840;2023-10-19T08:18:27;6.10;99.90
7461;DHT22;6757;52.258;12.840;2023-10-19T08:20:57;6.10;99.90
7461;DHT22;6757;52.258;12.840;2023-10-19T08:23:24;6.10;99.90
7461;DHT22;6757;52.258;12.840;2023-10-19T08:25:52;6.10;99.90
7461;DHT22;6757;52.258;12.840;2023-10-19T08:28:20;6.20;99.90
7461;DHT22;6757;52.258;12.840;2023-10-19T08:30:47;6.10;99.90
7461;DHT22;6757;52.258;12.840;2023-10-19T08:33:22;6.20;99.90
7461;DHT22;6757;52.258;12.840;2023-10-19T08:35:51;6.20;99.90
7461;DHT22;6757;52.258;12.840;2023-10-19T08:38:20;6.20;99.90
7461;DHT22;6757;52.258;12.840;2023-10-19T08:40:47;6.20;99.90
7461;DHT22;6757;52.258;12.840;2023-10-19T08:43:15;6.20;99.90
7461;DHT22;6757;52.258;12.840;2023-10-19T08:45:44;6.20;99.90
7461;DHT22;6757;52.258;12.840;2023-10-19T08:48:11;6.20;99.90
7461;DHT22;6757;52.258;12.840;2023-10-19T08:50:39;6.20;99.90
7461;DHT22;6757;52.258;12.840;2023-10-19T08:53:08;6.20;99.90
7461;DHT22;6757;52.258;12.840;2023-10-19T08:55:36;6.20;99.90
7461;DHT22;6757;52.258;12.840;2023-10-19T08:58:03;5.90;99.90
7461;DHT22;6757;52.258;12.840;2023-10-19T09:00:43;6.30;99.90
7461;DHT22;6757;52.258;12.840;2023-10-19T09:03:12;6.30;99.90
7461;DHT22;6757;52.258;12.840;2023-10-19T09:05:39;6.30;99.90
7461;DHT22;6757;52.258;12.840;2023-10-19T09:08:06;6.30;99.90
7461;DHT22;6757;52.258;12.840;2023-10-19T09:10:36;6.40;99.90
7461;DHT22;6757;52.258;12.840;2023-10-19T09:13:04;6.40;99.90
7461;DHT22;6757;52.258;12.840;2023-10-19T09:15:35;6.40;99.90
7461;DHT22;6757;52.258;12.840;2023-10-19T09:18:12;6.40;99.90
7461;DHT22;6757;52.258;12.840;2023-10-19T09:20:40;6.40;99.90
7461;DHT22;6757;52.258;12.840;2023-10-19T09:23:07;5.90;99.90
7461;DHT22;6757;52.258;12.840;2023-10-19T09:25:35;6.50;99.90
7461;DHT22;6757;52.258;12.840;2023-10-19T09:28:05;6.50;99.90
7461;DHT22;6757;52.258;12.840;2023-10-19T09:30:32;6.50;99.90
7461;DHT22;6757;52.258;12.840;2023-10-19T09:33:00;6.50;99.90
7461;DHT22;6757;52.258;12.840;2023-10-19T09:35:27;6.50;99.90
7461;DHT22;6757;52.258;12.840;2023-10-19T09:37:56;6.50;99.90
7461;DHT22;6757;52.258;12.840;2023-10-19T09:40:24;6.50;99.90
7461;DHT22;6757;52.258;12.840;2023-10-19T09:42:56;6.40;99.90
7461;DHT22;6757;52.258;12.840;2023-10-19T09:45:27;6.60;99.90
7461;DHT22;6757;52.258;12.840;2023-10-19T09:47:56;6.60;99.90
7461;DHT22;6757;52.258;12.840;2023-10-19T09:50:26;6.60;99.90
7461;DHT22;6757;52.258;12.840;2023-10-19T09:52:55;5.70;99.90
7461;DHT22;6757;52.258;12.840;2023-10-19T09:55:26;6.60;99.90
7461;DHT22;6757;52.258;12.840;2023-10-19T09:58:02;6.70;99.90
7461;DHT22;6757;52.258;12.840;2023-10-19T10:00:34;6.70;99.90
7461;DHT22;6757;52.258;12.840;2023-10-19T10:03:00;6.70;99.90
7461;DHT22;6757;52.258;12.840;2023-10-19T10:05:46;6.70;99.90
7461;DHT22;6757;52.258;12.840;2023-10-19T10:08:32;6.80;99.90
7461;DHT22;6757;52.258;12.840;2023-10-19T10:11:20;6.70;99.90
7461;DHT22;6757;52.258;12.840;2023-10-19T10:13:51;6.80;99.90
7461;DHT22;6757;52.258;12.840;2023-10-19T10:16:18;6.80;99.90
7461;DHT22;6757;52.258;12.840;2023-10-19T10:18:47;6.40;99.90
7461;DHT22;6757;52.258;12.840;2023-10-19T10:21:16;6.80;99.90
7461;DHT22;6757;52.258;12.840;2023-10-19T10:23:47;6.80;99.90
7461;DHT22;6757;52.258;12.840;2023-10-19T10:26:16;6.80;99.90
7461;DHT22;6757;52.258;12.840;2023-10-19T10:28:47;6.80;99.90
7461;DHT22;6757;52.258;12.840;2023-10-19T10:31:35;6.80;99.90
7461;DHT22;6757;52.258;12.840;2023-10-19T10:34:08;6.90;99.90
7461;DHT22;6757;52.258;12.840;2023-10-19T10:36:57;6.90;99.90
7461;DHT22;6757;52.258;12.840;2023-10-19T10:39:25;6.90;99.90
7461;DHT22;6757;52.258;12.840;2023-10-19T10:41:55;6.80;99.90
7461;DHT22;6757;52.258;12.840;2023-10-19T10:44:39;6.90;99.90
7461;DHT22;6757;52.258;12.840;2023-10-19T10:47:07;6.90;99.90
7461;DHT22;6757;52.258;12.840;2023-10-19T10:49:46;6.80;99.90
7461;DHT22;6757;52.258;12.840;2023-10-19T10:52:26;6.90;99.90
7461;DHT22;6757;52.258;12.840;2023-10-19T10:54:55;6.90;99.90
7461;DHT22;6757;52.258;12.840;2023-10-19T10:57:22;6.90;99.90
7461;DHT22;6757;52.258;12.840;2023-10-19T11:00:02;8.00;99.90
7461;DHT22;6757;52.258;12.840;2023-10-19T11:02:30;6.90;99.90
7461;DHT22;6757;52.258;12.840;2023-10-19T11:04:57;6.90;99.90
7461;DHT22;6757;52.258;12.840;2023-10-19T11:07:25;7.00;99.90
7461;DHT22;6757;52.258;12.840;2023-10-19T11:09:52;7.00;99.90
7461;DHT22;6757;52.258;12.840;2023-10-19T11:12:20;7.00;99.90
7461;DHT22;6757;52.258;12.840;2023-10-19T11:14:53;7.00;99.90
7461;DHT22;6757;52.258;12.840;2023-10-19T11:17:22;6.80;99.90
7461;DHT22;6757;52.258;12.840;2023-10-19T11:19:54;7.10;99.90
7461;DHT22;6757;52.258;12.840;2023-10-19T11:22:22;7.10;99.90
7461;DHT22;6757;52.258;12.840;2023-10-19T11:24:50;7.60;99.90
7461;DHT22;6757;52.258;12.840;2023-10-19T11:27:22;7.20;99.90
7461;DHT22;6757;52.258;12.840;2023-10-19T11:29:55;7.20;99.90
7461;DHT22;6757;52.258;12.840;2023-10-19T11:32:24;7.20;99.90
7461;DHT22;6757;52.258;12.840;2023-10-19T11:34:52;7.20;99.90
7461;DHT22;6757;52.258;12.840;2023-10-19T11:37:20;7.30;99.90
7461;DHT22;6757;52.258;12.840;2023-10-19T11:39:46;7.30;99.90
7461;DHT22;6757;52.258;12.840;2023-10-19T11:42:15;7.30;99.90
7461;DHT22;6757;52.258;12.840;2023-10-19T11:44:42;7.00;99.90
7461;DHT22;6757;52.258;12.840;2023-10-19T11:47:09;7.40;99.90
7461;DHT22;6757;52.258;12.840;2023-10-19T11:49:37;7.30;99.90
7461;DHT22;6757;52.258;12.840;2023-10-19T11:52:05;7.40;99.90
7461;DHT22;6757;52.258;12.840;2023-10-19T11:54:33;7.40;99.90
7461;DHT22;6757;52.258;12.840;2023-10-19T11:56:59;7.40;99.90
7461;DHT22;6757;52.258;12.840;2023-10-19T11:59:27;7.40;99.90
7461;DHT22;6757;52.258;12.840;2023-10-19T12:01:54;7.40;99.90
7461;DHT22;6757;52.258;12.840;2023-10-19T12:04:22;7.40;99.90
7461;DHT22;6757;52.258;12.840;2023-10-19T12:06:50;7.40;99.90
7461;DHT22;6757;52.258;12.840;2023-10-19T12:09:16;7.30;99.90
7461;DHT22;6757;52.258;12.840;2023-10-19T12:11:44;7.40;99.90
7461;DHT22;6757;52.258;12.840;2023-10-19T12:14:10;7.30;99.90
7461;DHT22;6757;52.258;12.840;2023-10-19T12:16:40;7.40;99.90
7461;DHT22;6757;52.258;12.840;2023-10-19T12:19:07;7.50;99.90
7461;DHT22;6757;52.258;12.840;2023-10-19T12:21:34;7.50;99.90
7461;DHT22;6757;52.258;12.840;2023-10-19T12:24:05;7.40;99.90
7461;DHT22;6757;52.258;12.840;2023-10-19T12:26:33;7.50;99.90
7461;DHT22;6757;52.258;12.840;2023-10-19T12:29:00;7.40;99.90
7461;DHT22;6757;52.258;12.840;2023-10-19T12:31:26;7.50;99.90
7461;DHT22;6757;52.258;12.840;2023-10-19T12:33:55;7.50;99.90
7461;DHT22;6757;52.258;12.840;2023-10-19T12:36:22;7.50;99.90
7461;DHT22;6757;52.258;12.840;2023-10-19T12:38:56;7.50;99.90
7461;DHT22;6757;52.258;12.840;2023-10-19T12:41:25;7.50;99.90
7461;DHT22;6757;52.258;12.840;2023-10-19T12:43:52;7.50;99.90
7461;DHT22;6757;52.258;12.840;2023-10-19T12:46:22;7.50;99.90
7461;DHT22;6757;52.258;12.840;2023-10-19T12:48:50;7.50;99.90
7461;DHT22;6757;52.258;12.840;2023-10-19T12:51:17;6.30;99.90
7461;DHT22;6757;52.258;12.840;2023-10-19T12:53:48;6.90;99.90
7461;DHT22;6757;52.258;12.840;2023-10-19T12:56:16;6.90;99.90
7461;DHT22;6757;52.258;12.840;2023-10-19T12:58:44;7.90;99.90
7461;DHT22;6757;52.258;12.840;2023-10-19T13:01:11;7.50;99.90
7461;DHT22;6757;52.258;12.840;2023-10-19T13:03:41;7.50;99.90
7461;DHT22;6757;52.258;12.840;2023-10-19T13:06:10;7.50;99.90
7461;DHT22;6757;52.258;12.840;2023-10-19T13:08:37;7.50;99.90
7461;DHT22;6757;52.258;12.840;2023-10-19T13:11:06;7.50;99.90
7461;DHT22;6757;52.258;12.840;2023-10-19T13:13:33;7.50;99.90
7461;DHT22;6757;52.258;12.840;2023-10-19T13:16:03;7.50;99.90
7461;DHT22;6757;52.258;12.840;2023-10-19T13:18:31;8.60;99.90
7461;DHT22;6757;52.258;12.840;2023-10-19T13:20:59;7.50;99.90
7461;DHT22;6757;52.258;12.840;2023-10-19T13:23:30;7.50;99.90
7461;DHT22;6757;52.258;12.840;2023-10-19T13:25:59;7.50;99.90
7461;DHT22;6757;52.258;12.840;2023-10-19T13:28:34;7.50;99.90
7461;DHT22;6757;52.258;12.840;2023-10-19T13:31:04;7.50;99.90
7461;DHT22;6757;52.258;12.840;2023-10-19T13:33:34;7.60;99.90
7461;DHT22;6757;52.258;12.840;2023-10-19T13:36:01;8.60;99.90
7461;DHT22;6757;52.258;12.840;2023-10-19T13:38:31;6.90;99.90
7461;DHT22;6757;52.258;12.840;2023-10-19T13:40:58;8.00;99.90
7461;DHT22;6757;52.258;12.840;2023-10-19T13:43:25;7.60;99.90
7461;DHT22;6757;52.258;12.840;2023-10-19T13:45:51;7.20;99.90
7461;DHT22;6757;52.258;12.840;2023-10-19T13:48:20;6.90;99.90
7461;DHT22;6757;52.258;12.840;2023-10-19T13:50:48;7.60;99.90
7461;DHT22;6757;52.258;12.840;2023-10-19T13:53:15;7.60;99.90
7461;DHT22;6757;52.258;12.840;2023-10-19T13:55:42;7.60;99.90
7461;DHT22;6757;52.258;12.840;2023-10-19T13:58:10;6.50;99.90
7461;DHT22;6757;52.258;12.840;2023-10-19T14:00:40;7.60;99.90
7461;DHT22;6757;52.258;12.840;2023-10-19T14:03:08;7.60;99.90
7461;DHT22;6757;52.258;12.840;2023-10-19T14:05:37;7.60;99.90
7461;DHT22;6757;52.258;12.840;2023-10-19T14:08:05;7.60;99.90
7461;DHT22;6757;52.258;12.840;2023-10-19T14:10:33;7.60;99.90
7461;DHT22;6757;52.258;12.840;2023-10-19T14:13:00;7.60;99.90
7461;DHT22;6757;52.258;12.840;2023-10-19T14:15:27;7.60;99.90
7461;DHT22;6757;52.258;12.840;2023-10-19T14:17:55;7.60;99.90
7461;DHT22;6757;52.258;12.840;2023-10-19T14:20:24;7.50;99.90
7461;DHT22;6757;52.258;12.840;2023-10-19T14:22:52;7.50;99.90
7461;DHT22;6757;52.258;12.840;2023-10-19T14:25:20;7.50;99.90
7461;DHT22;6757;52.258;12.840;2023-10-19T14:27:49;7.50;99.90
7461;DHT22;6757;52.258;12.840;2023-10-19T14:30:22;7.60;99.90
7461;DHT22;6757;52.258;12.840;2023-10-19T14:32:50;7.50;99.90
7461;DHT22;6757;52.258;12.840;2023-10-19T14:35:18;7.60;99.90
7461;DHT22;6757;52.258;12.840;2023-10-19T14:37:47;7.40;99.90
7461;DHT22;6757;52.258;12.840;2023-10-19T14:40:17;8.80;99.90
7461;DHT22;6757;52.258;12.840;2023-10-19T14:42:46;7.50;99.90
7461;DHT22;6757;52.258;12.840;2023-10-19T14:45:14;7.50;99.90
7461;DHT22;6757;52.258;12.840;2023-10-19T14:47:46;7.50;99.90
7461;DHT22;6757;52.258;12.840;2023-10-19T14:50:14;7.50;99.90
7461;DHT22;6757;52.258;12.840;2023-10-19T14:52:44;7.50;99.90
7461;DHT22;6757;52.258;12.840;2023-10-19T14:55:12;7.50;99.90
7461;DHT22;6757;52.258;12.840;2023-10-19T14:57:42;7.50;99.90
7461;DHT22;6757;52.258;12.840;2023-10-19T15:00:11;7.50;99.90
7461;DHT22;6757;52.258;12.840;2023-10-19T15:02:42;7.50;99.90
7461;DHT22;6757;52.258;12.840;2023-10-19T15:05:10;7.60;99.90
7461;DHT22;6757;52.258;12.840;2023-10-19T15:07:40;7.70;99.90
7461;DHT22;6757;52.258;12.840;2023-10-19T15:10:09;7.70;99.90
7461;DHT22;6757;52.258;12.840;2023-10-19T15:12:37;7.80;99.90
7461;DHT22;6757;52.258;12.840;2023-10-19T15:15:06;7.80;99.90
7461;DHT22;6757;52.258;12.840;2023-10-19T15:17:34;7.80;99.90
7461;DHT22;6757;52.258;12.840;2023-10-19T15:20:01;7.80;99.90
7461;DHT22;6757;52.258;12.840;2023-10-19T15:22:30;8.90;99.90
7461;DHT22;6757;52.258;12.840;2023-10-19T15:24:57;7.80;99.90
7461;DHT22;6757;52.258;12.840;2023-10-19T15:27:24;7.70;99.90
7461;DHT22;6757;52.258;12.840;2023-10-19T15:29:51;7.70;99.90
7461;DHT22;6757;52.258;12.840;2023-10-19T15:32:19;7.70;99.90
7461;DHT22;6757;52.258;12.840;2023-10-19T15:34:47;7.70;99.90
7461;DHT22;6757;52.258;12.840;2023-10-19T15:37:13;7.70;99.90
7461;DHT22;6757;52.258;12.840;2023-10-19T15:39:40;7.70;99.90
7461;DHT22;6757;52.258;12.840;2023-10-19T15:42:08;7.10;99.90
7461;DHT22;6757;52.258;12.840;2023-10-19T15:44:34;7.80;99.90
7461;DHT22;6757;52.258;12.840;2023-10-19T15:47:01;7.80;99.90
7461;DHT22;6757;52.258;12.840;2023-10-19T15:49:36;7.70;99.90
7461;DHT22;6757;52.258;12.840;2023-10-19T15:52:03;6.90;99.90
7461;DHT22;6757;52.258;12.840;2023-10-19T15:54:30;7.80;99.90
7461;DHT22;6757;52.258;12.840;2023-10-19T15:56:56;7.90;99.90
7461;DHT22;6757;52.258;12.840;2023-10-19T15:59:23;8.30;99.90
7461;DHT22;6757;52.258;12.840;2023-10-19T16:01:50;8.80;99.90
7461;DHT22;6757;52.258;12.840;2023-10-19T16:04:17;9.00;99.90
7461;DHT22;6757;52.258;12.840;2023-10-19T16:06:45;9.00;99.90
7461;DHT22;6757;52.258;12.840;2023-10-19T16:09:11;9.00;99.90
7461;DHT22;6757;52.258;12.840;2023-10-19T16:11:38;8.80;99.90
7461;DHT22;6757;52.258;12.840;2023-10-19T16:14:05;8.70;99.90
7461;DHT22;6757;52.258;12.840;2023-10-19T16:16:31;8.50;99.90